Time;durP1;ratioP1;P1;durP2;ratioP2;P2;SDS_P1;SDS_P2;PMS_P1;PMS_P2;Temp;Humidity;BMP_temperature;BMP_pressure;BME280_temperature;BME280_humidity;BME280_pressure;Samples;Min_cycle;Max_cycle;Signal;HPM_P1;HPM_P2
2022/04/27 00:00:18;;;;;;;;;;;13.90;99.90;;;;;;5070922;28;20021;-85
2022/04/27 00:02:44;;;;;;;;;;;13.80;99.90;;;;;;5070735;28;19920;-85
2022/04/27 00:05:10;;;;;;;;;;;13.80;99.90;;;;;;5070365;28;19908;-85
2022/04/27 00:07:35;;;;;;;;;;;13.70;99.90;;;;;;5070692;28;20003;-85
2022/04/27 00:10:01;;;;;;;;;;;13.70;99.90;;;;;;5052466;28;19950;-85
2022/04/27 00:12:27;;;;;;;;;;;13.70;99.90;;;;;;5070443;28;19958;-85
2022/04/27 00:14:52;;;;;;;;;;;13.60;99.90;;;;;;5070481;28;19947;-85
2022/04/27 00:17:18;;;;;;;;;;;13.60;99.90;;;;;;5070725;28;20328;-86
2022/04/27 00:19:44;;;;;;;;;;;13.60;99.90;;;;;;5070195;28;20110;-84
2022/04/27 00:22:11;;;;;;;;;;;13.60;99.90;;;;;;5070434;28;19915;-85
2022/04/27 00:24:38;;;;;;;;;;;13.60;99.90;;;;;;5070896;28;19921;-85
2022/04/27 00:27:04;;;;;;;;;;;13.50;99.90;;;;;;5070272;28;19908;-85
2022/04/27 00:29:29;;;;;;;;;;;13.50;99.90;;;;;;5063850;28;20471;-85
2022/04/27 00:31:55;;;;;;;;;;;13.50;99.90;;;;;;5070204;28;19908;-85
2022/04/27 00:34:20;;;;;;;;;;;13.50;99.90;;;;;;5069961;28;19909;-85
2022/04/27 00:36:46;;;;;;;;;;;13.60;99.90;;;;;;5052534;28;19908;-85
2022/04/27 00:39:12;;;;;;;;;;;13.50;99.90;;;;;;5070297;28;19916;-85
2022/04/27 00:41:38;;;;;;;;;;;13.50;99.90;;;;;;5052290;28;19912;-85
2022/04/27 00:44:04;;;;;;;;;;;13.40;99.90;;;;;;5070155;28;20327;-85
2022/04/27 00:46:29;;;;;;;;;;;13.40;99.90;;;;;;5070239;28;19909;-85
2022/04/27 00:48:55;;;;;;;;;;;13.40;99.90;;;;;;5070001;28;19939;-86
2022/04/27 00:51:21;;;;;;;;;;;13.40;99.90;;;;;;5052142;28;20396;-85
2022/04/27 00:53:48;;;;;;;;;;;13.30;99.90;;;;;;5070041;28;19974;-85
2022/04/27 00:56:14;;;;;;;;;;;13.30;99.90;;;;;;5069980;28;19916;-85
2022/04/27 00:58:39;;;;;;;;;;;13.40;99.90;;;;;;5070009;28;19923;-85
2022/04/27 01:01:05;;;;;;;;;;;13.40;99.90;;;;;;5051993;28;19913;-85
2022/04/27 01:03:30;;;;;;;;;;;13.30;99.90;;;;;;5069872;28;19915;-85
2022/04/27 01:05:57;;;;;;;;;;;13.30;99.90;;;;;;5069879;28;20667;-85
2022/04/27 01:08:23;;;;;;;;;;;13.30;99.90;;;;;;5069762;28;19922;-85
2022/04/27 01:10:49;;;;;;;;;;;13.20;99.90;;;;;;5069947;28;19935;-85
2022/04/27 01:13:15;;;;;;;;;;;13.20;99.90;;;;;;5070098;28;19909;-85
2022/04/27 01:15:40;;;;;;;;;;;13.20;99.90;;;;;;5052052;28;19947;-85
2022/04/27 01:18:09;;;;;;;;;;;13.10;99.90;;;;;;5069890;28;20333;-85
2022/04/27 01:20:46;;;;;;;;;;;13.00;99.90;;;;;;5069870;28;20276;-85
2022/04/27 01:23:15;;;;;;;;;;;13.00;99.90;;;;;;5069506;28;19922;-84
2022/04/27 01:25:48;;;;;;;;;;;13.00;99.90;;;;;;5069942;28;19928;-85
2022/04/27 01:28:35;;;;;;;;;;;12.90;99.90;;;;;;5051655;28;19912;-85
2022/04/27 01:31:02;;;;;;;;;;;13.00;99.90;;;;;;5069476;28;19909;-85
2022/04/27 01:33:28;;;;;;;;;;;13.00;99.90;;;;;;5052762;28;20446;-85
2022/04/27 01:35:53;;;;;;;;;;;13.00;99.90;;;;;;5072701;28;19909;-85
2022/04/27 01:38:19;;;;;;;;;;;13.00;99.90;;;;;;5073339;28;19978;-85
2022/04/27 01:40:45;;;;;;;;;;;13.00;99.90;;;;;;5073342;28;20015;-85
2022/04/27 01:43:14;;;;;;;;;;;12.90;99.90;;;;;;5055240;28;20433;-85
2022/04/27 01:45:41;;;;;;;;;;;12.90;99.90;;;;;;5073308;28;19931;-85
2022/04/27 01:48:07;;;;;;;;;;;12.80;99.90;;;;;;5072836;28;19961;-85
2022/04/27 01:50:32;;;;;;;;;;;12.80;99.90;;;;;;5073367;28;20018;-85
2022/04/27 01:55:42;;;;;;;;;;;12.80;99.90;;;;;;5073226;28;19976;-85
2022/04/27 01:58:08;;;;;;;;;;;12.80;99.90;;;;;;5072937;28;19925;-85
2022/04/27 02:00:33;;;;;;;;;;;12.80;99.90;;;;;;5072961;28;20284;-85
2022/04/27 02:02:59;;;;;;;;;;;12.70;99.90;;;;;;5072837;28;19908;-85
2022/04/27 02:05:25;;;;;;;;;;;12.70;99.90;;;;;;5072543;28;20003;-85
2022/04/27 02:07:50;;;;;;;;;;;12.70;99.90;;;;;;5054721;28;20332;-86
2022/04/27 02:10:16;;;;;;;;;;;12.70;99.90;;;;;;5072978;28;19908;-85
2022/04/27 02:12:42;;;;;;;;;;;12.60;99.90;;;;;;5055220;28;19912;-86
2022/04/27 02:15:09;;;;;;;;;;;12.60;99.90;;;;;;5072651;28;19948;-85
2022/04/27 02:17:35;;;;;;;;;;;12.50;99.90;;;;;;5072681;28;19908;-84
2022/04/27 02:20:00;;;;;;;;;;;12.50;99.90;;;;;;5072145;28;19917;-85
2022/04/27 02:22:26;;;;;;;;;;;12.40;99.90;;;;;;5072635;28;19938;-85
2022/04/27 02:24:52;;;;;;;;;;;12.50;99.90;;;;;;5072466;28;20420;-85
2022/04/27 02:27:17;;;;;;;;;;;12.40;99.90;;;;;;5072619;28;20023;-84
2022/04/27 02:29:43;;;;;;;;;;;12.50;99.90;;;;;;5072652;28;20152;-84
2022/04/27 02:32:09;;;;;;;;;;;12.50;99.90;;;;;;5054311;28;20392;-85
2022/04/27 02:34:34;;;;;;;;;;;12.40;99.90;;;;;;5072400;28;19908;-84
2022/04/27 02:37:00;;;;;;;;;;;12.40;99.90;;;;;;5072226;28;20403;-85
2022/04/27 02:39:25;;;;;;;;;;;12.40;99.90;;;;;;5072237;28;19924;-85
2022/04/27 02:41:51;;;;;;;;;;;12.30;99.90;;;;;;5072408;28;19915;-85
2022/04/27 02:44:17;;;;;;;;;;;12.30;99.90;;;;;;5072237;28;20276;-85
2022/04/27 02:46:42;;;;;;;;;;;12.30;99.90;;;;;;5072686;28;19935;-85
2022/04/27 02:51:52;;;;;;;;;;;12.30;99.90;;;;;;5072830;28;20454;-85
2022/04/27 02:54:19;;;;;;;;;;;12.30;99.90;;;;;;5071798;28;19909;-85
2022/04/27 02:56:44;;;;;;;;;;;12.30;99.90;;;;;;5072257;28;20045;-85
2022/04/27 02:59:10;;;;;;;;;;;12.30;99.90;;;;;;5071897;28;20234;-85
2022/04/27 03:01:36;;;;;;;;;;;12.20;99.90;;;;;;5072134;28;19909;-85
2022/04/27 03:04:01;;;;;;;;;;;12.10;99.90;;;;;;5065125;28;20301;-85
2022/04/27 03:06:27;;;;;;;;;;;12.10;99.90;;;;;;5071941;28;19923;-85
2022/04/27 03:08:53;;;;;;;;;;;12.10;99.90;;;;;;5071851;28;20037;-84
2022/04/27 03:11:21;;;;;;;;;;;12.00;99.90;;;;;;5071545;28;19908;-85
2022/04/27 03:13:47;;;;;;;;;;;12.00;99.90;;;;;;5071624;28;19909;-85
2022/04/27 03:16:12;;;;;;;;;;;12.10;99.90;;;;;;5071826;28;19909;-85
2022/04/27 03:18:38;;;;;;;;;;;12.00;99.90;;;;;;5071147;28;19912;-85
2022/04/27 03:21:04;;;;;;;;;;;12.00;99.90;;;;;;5053595;28;19909;-85
2022/04/27 03:23:29;;;;;;;;;;;12.00;99.90;;;;;;5071502;28;20381;-85
2022/04/27 03:25:55;;;;;;;;;;;12.00;99.90;;;;;;5071261;28;19920;-85
2022/04/27 03:28:21;;;;;;;;;;;12.00;99.90;;;;;;5053222;28;19908;-85
2022/04/27 03:30:49;;;;;;;;;;;12.00;99.90;;;;;;5053293;28;20328;-85
2022/04/27 03:33:18;;;;;;;;;;;11.90;99.90;;;;;;5052758;28;19908;-85
2022/04/27 03:35:44;;;;;;;;;;;11.90;99.90;;;;;;5053196;28;20011;-85
2022/04/27 03:38:10;;;;;;;;;;;11.90;99.90;;;;;;5071143;28;19959;-85
2022/04/27 03:40:36;;;;;;;;;;;11.90;99.90;;;;;;5071281;28;19951;-85
2022/04/27 03:43:02;;;;;;;;;;;12.00;99.90;;;;;;5071103;28;20453;-85
2022/04/27 03:45:28;;;;;;;;;;;12.00;99.90;;;;;;5071072;28;20296;-85
2022/04/27 03:47:53;;;;;;;;;;;12.00;99.90;;;;;;5070940;28;19916;-85
2022/04/27 03:50:19;;;;;;;;;;;11.90;99.90;;;;;;5070623;28;20377;-85
2022/04/27 03:52:45;;;;;;;;;;;11.90;99.90;;;;;;5052779;28;20246;-85
2022/04/27 03:55:11;;;;;;;;;;;11.80;99.90;;;;;;5071063;28;19994;-85
2022/04/27 03:57:37;;;;;;;;;;;11.80;99.90;;;;;;5052549;28;19913;-85
2022/04/27 04:00:03;;;;;;;;;;;11.70;99.90;;;;;;5070756;28;19917;-85
2022/04/27 04:02:29;;;;;;;;;;;11.80;99.90;;;;;;5070737;28;19908;-85
2022/04/27 04:04:55;;;;;;;;;;;11.80;99.90;;;;;;5070331;28;19915;-85
2022/04/27 04:07:20;;;;;;;;;;;11.70;99.90;;;;;;5070435;28;19943;-85
2022/04/27 04:09:46;;;;;;;;;;;11.70;99.90;;;;;;5063938;28;19909;-86
2022/04/27 04:12:13;;;;;;;;;;;11.60;99.90;;;;;;5070626;28;19920;-85
2022/04/27 04:14:39;;;;;;;;;;;11.60;99.90;;;;;;5070791;28;19908;-85
2022/04/27 04:17:05;;;;;;;;;;;11.50;99.90;;;;;;5070528;28;20331;-85
2022/04/27 04:19:32;;;;;;;;;;;11.50;99.90;;;;;;5070052;28;19948;-85
2022/04/27 04:21:59;;;;;;;;;;;11.50;99.90;;;;;;5070365;28;19919;-85
2022/04/27 04:24:25;;;;;;;;;;;11.50;99.90;;;;;;5070342;28;19913;-85
2022/04/27 04:29:35;;;;;;;;;;;11.50;99.90;;;;;;5070626;28;19958;-85
2022/04/27 04:32:00;;;;;;;;;;;11.50;99.90;;;;;;5070329;28;19956;-85
2022/04/27 04:34:26;;;;;;;;;;;11.50;99.90;;;;;;5070646;28;20457;-85
2022/04/27 04:36:52;;;;;;;;;;;11.50;99.90;;;;;;5070416;28;19905;-85
2022/04/27 04:39:18;;;;;;;;;;;11.50;99.90;;;;;;5070072;28;19956;-85
2022/04/27 04:41:44;;;;;;;;;;;11.40;99.90;;;;;;5070135;28;19913;-85
2022/04/27 04:44:09;;;;;;;;;;;11.40;99.90;;;;;;5069987;28;20379;-85
2022/04/27 04:46:35;;;;;;;;;;;11.40;99.90;;;;;;5070159;28;20143;-85
2022/04/27 04:49:01;;;;;;;;;;;11.40;99.90;;;;;;5069584;28;19908;-85
2022/04/27 04:51:26;;;;;;;;;;;11.40;99.90;;;;;;5070492;28;19909;-85
2022/04/27 04:53:52;;;;;;;;;;;11.30;99.90;;;;;;5070095;28;19913;-85
2022/04/27 04:56:18;;;;;;;;;;;11.20;99.90;;;;;;5069930;28;19916;-85
2022/04/27 04:58:43;;;;;;;;;;;11.30;99.90;;;;;;5070120;28;20268;-85
2022/04/27 05:01:09;;;;;;;;;;;11.30;99.90;;;;;;5069821;28;20003;-85
2022/04/27 05:03:37;;;;;;;;;;;11.30;99.90;;;;;;5051512;28;19909;-85
2022/04/27 05:06:03;;;;;;;;;;;11.30;99.90;;;;;;5069890;28;20384;-85
2022/04/27 05:08:28;;;;;;;;;;;11.30;99.90;;;;;;5070316;28;19908;-85
2022/04/27 05:10:54;;;;;;;;;;;11.30;99.90;;;;;;5054730;28;19908;-85
2022/04/27 05:13:20;;;;;;;;;;;11.40;99.90;;;;;;5074102;28;19970;-85
2022/04/27 05:15:45;;;;;;;;;;;11.30;99.90;;;;;;5073989;28;20323;-85
2022/04/27 05:18:11;;;;;;;;;;;11.30;99.90;;;;;;5073367;28;20019;-85
2022/04/27 05:20:38;;;;;;;;;;;11.20;99.90;;;;;;5073689;28;19908;-85
2022/04/27 05:23:04;;;;;;;;;;;11.30;99.90;;;;;;5073709;28;20277;-86
2022/04/27 05:25:30;;;;;;;;;;;11.20;99.90;;;;;;5073721;28;20007;-87
2022/04/27 05:27:56;;;;;;;;;;;11.20;99.90;;;;;;5055770;28;19999;-86
2022/04/27 05:33:06;;;;;;;;;;;11.30;99.90;;;;;;5071637;28;20304;-87
2022/04/27 05:35:39;;;;;;;;;;;11.30;99.90;;;;;;5073296;28;19913;-87
2022/04/27 05:38:05;;;;;;;;;;;11.30;99.90;;;;;;5072732;28;19924;-87
2022/04/27 05:40:30;;;;;;;;;;;11.30;99.90;;;;;;5072731;28;20331;-87
2022/04/27 05:42:57;;;;;;;;;;;11.30;99.90;;;;;;5072731;28;19909;-86
2022/04/27 05:45:23;;;;;;;;;;;11.40;99.90;;;;;;5072635;28;19921;-86
2022/04/27 05:47:49;;;;;;;;;;;11.40;99.90;;;;;;5073123;28;19952;-86
2022/04/27 05:50:15;;;;;;;;;;;11.50;99.90;;;;;;5055105;28;19959;-87
2022/04/27 05:52:54;;;;;;;;;;;11.50;99.90;;;;;;5073679;28;19915;-87
2022/04/27 05:55:20;;;;;;;;;;;11.60;99.90;;;;;;5074930;28;19913;-86
2022/04/27 05:57:46;;;;;;;;;;;11.60;99.90;;;;;;5072781;28;19914;-86
2022/04/27 06:00:12;;;;;;;;;;;11.50;99.90;;;;;;5073375;28;19920;-87
2022/04/27 06:02:38;;;;;;;;;;;11.60;99.90;;;;;;5073116;28;20257;-87
2022/04/27 06:05:04;;;;;;;;;;;11.60;99.90;;;;;;5072845;28;20053;-87
2022/04/27 06:07:30;;;;;;;;;;;11.60;99.90;;;;;;5073265;28;19909;-87
2022/04/27 06:09:56;;;;;;;;;;;11.70;99.90;;;;;;5074196;28;20392;-87
2022/04/27 06:12:25;;;;;;;;;;;11.80;99.90;;;;;;5072805;28;19989;-87
2022/04/27 06:14:50;;;;;;;;;;;11.80;99.90;;;;;;5073000;28;19975;-86
2022/04/27 06:17:17;;;;;;;;;;;11.80;99.90;;;;;;5073398;28;19954;-87
2022/04/27 06:19:43;;;;;;;;;;;11.90;99.90;;;;;;5055867;28;20002;-87
2022/04/27 06:22:09;;;;;;;;;;;12.00;99.90;;;;;;5074901;28;20061;-87
2022/04/27 06:24:34;;;;;;;;;;;12.00;99.90;;;;;;5073009;28;19920;-87
2022/04/27 06:27:00;;;;;;;;;;;12.00;99.90;;;;;;5055640;28;19908;-87
2022/04/27 06:29:26;;;;;;;;;;;12.00;99.90;;;;;;5072585;28;19908;-87
2022/04/27 06:31:51;;;;;;;;;;;12.10;99.90;;;;;;5072587;28;19908;-87
2022/04/27 06:34:17;;;;;;;;;;;12.20;99.90;;;;;;5054204;28;19909;-88
2022/04/27 06:36:43;;;;;;;;;;;12.20;99.90;;;;;;5072435;28;19959;-87
2022/04/27 06:39:12;;;;;;;;;;;12.30;99.90;;;;;;5054252;28;19917;-87
2022/04/27 06:41:38;;;;;;;;;;;12.30;99.90;;;;;;5054348;28;19909;-87
2022/04/27 06:44:03;;;;;;;;;;;12.40;99.90;;;;;;5072225;28;19909;-87
2022/04/27 06:46:29;;;;;;;;;;;12.40;99.90;;;;;;5072469;28;19908;-87
2022/04/27 06:48:55;;;;;;;;;;;12.50;99.90;;;;;;5054373;28;20319;-88
2022/04/27 06:51:21;;;;;;;;;;;12.60;99.90;;;;;;5072134;28;19909;-87
2022/04/27 06:53:47;;;;;;;;;;;12.80;99.90;;;;;;5054044;28;19916;-87
2022/04/27 06:56:16;;;;;;;;;;;12.90;99.90;;;;;;5053818;28;20007;-87
2022/04/27 06:58:41;;;;;;;;;;;12.90;99.90;;;;;;5053910;28;19969;-87
2022/04/27 07:01:07;;;;;;;;;;;12.90;99.90;;;;;;5054005;28;20007;-88
2022/04/27 07:03:35;;;;;;;;;;;12.90;99.90;;;;;;5071627;28;19924;-87
2022/04/27 07:06:02;;;;;;;;;;;13.00;99.90;;;;;;5053864;28;19912;-87
2022/04/27 07:08:28;;;;;;;;;;;13.00;99.90;;;;;;5071904;28;19915;-87
2022/04/27 07:10:55;;;;;;;;;;;13.10;99.90;;;;;;5071694;28;19908;-87
2022/04/27 07:13:22;;;;;;;;;;;13.10;99.90;;;;;;5071832;28;20257;-87
2022/04/27 07:15:48;;;;;;;;;;;13.20;99.90;;;;;;5053679;28;20379;-88
2022/04/27 07:18:13;;;;;;;;;;;13.20;99.90;;;;;;5071088;28;20020;-87
2022/04/27 07:20:39;;;;;;;;;;;13.30;99.90;;;;;;5053718;28;19909;-87
2022/04/27 07:23:05;;;;;;;;;;;13.30;99.90;;;;;;5071411;28;19999;-87
2022/04/27 07:25:30;;;;;;;;;;;13.40;99.90;;;;;;5071590;28;19921;-87
2022/04/27 07:27:56;;;;;;;;;;;13.40;99.90;;;;;;5071369;28;19915;-87
2022/04/27 07:30:23;;;;;;;;;;;13.50;99.90;;;;;;5053322;28;20304;-87
2022/04/27 07:32:49;;;;;;;;;;;13.50;99.90;;;;;;5070286;28;20377;-87
2022/04/27 07:35:15;;;;;;;;;;;13.60;99.90;;;;;;5064755;28;19962;-87
2022/04/27 07:37:40;;;;;;;;;;;13.60;99.90;;;;;;5053098;28;19962;-86
2022/04/27 07:40:07;;;;;;;;;;;13.60;99.90;;;;;;5070984;28;19920;-87
2022/04/27 07:42:33;;;;;;;;;;;13.80;99.90;;;;;;5053214;28;19912;-86
2022/04/27 07:44:59;;;;;;;;;;;14.00;99.90;;;;;;5070750;28;20003;-86
2022/04/27 07:47:24;;;;;;;;;;;14.10;99.90;;;;;;5071510;28;20254;-86
2022/04/27 07:49:50;;;;;;;;;;;14.30;99.90;;;;;;5052994;28;19909;-87
2022/04/27 07:52:16;;;;;;;;;;;14.40;99.90;;;;;;5070830;28;19912;-86
2022/04/27 07:54:42;;;;;;;;;;;14.60;99.90;;;;;;5052922;28;19918;-88
2022/04/27 07:57:08;;;;;;;;;;;14.90;99.90;;;;;;5070699;28;19909;-87
2022/04/27 07:59:34;;;;;;;;;;;15.10;99.90;;;;;;5070832;28;19916;-87
2022/04/27 08:01:59;;;;;;;;;;;15.10;99.90;;;;;;5052745;28;20000;-87
2022/04/27 08:04:25;;;;;;;;;;;15.20;99.90;;;;;;5070444;28;19913;-87
2022/04/27 08:06:51;;;;;;;;;;;15.20;99.90;;;;;;5052862;28;19916;-87
2022/04/27 08:09:16;;;;;;;;;;;15.10;99.90;;;;;;5052787;28;19969;-86
2022/04/27 08:11:42;;;;;;;;;;;15.10;99.90;;;;;;5070775;28;19909;-87
2022/04/27 08:14:08;;;;;;;;;;;15.10;99.90;;;;;;5052462;28;19909;-87
2022/04/27 08:16:34;;;;;;;;;;;15.10;99.90;;;;;;5070745;28;19955;-87
2022/04/27 08:18:59;;;;;;;;;;;15.00;99.90;;;;;;5070858;28;20173;-87
2022/04/27 08:21:27;;;;;;;;;;;14.90;99.90;;;;;;5070426;28;19909;-86
2022/04/27 08:23:53;;;;;;;;;;;15.10;99.90;;;;;;5070364;28;20400;-87
2022/04/27 08:26:19;;;;;;;;;;;15.20;99.90;;;;;;5070625;28;19953;-86
2022/04/27 08:28:45;;;;;;;;;;;15.30;99.90;;;;;;5071152;28;19909;-86
2022/04/27 08:31:12;;;;;;;;;;;15.30;99.90;;;;;;5052818;28;19915;-87
2022/04/27 08:33:38;;;;;;;;;;;15.20;99.90;;;;;;5070081;28;19932;-88
2022/04/27 08:36:04;;;;;;;;;;;15.00;99.90;;;;;;5063710;28;19928;-87
2022/04/27 08:38:30;;;;;;;;;;;15.00;99.90;;;;;;5052338;28;19913;-87
2022/04/27 08:40:56;;;;;;;;;;;15.00;99.90;;;;;;5052146;28;20334;-87
2022/04/27 08:43:22;;;;;;;;;;;15.10;99.90;;;;;;5052001;28;20391;-88
2022/04/27 08:45:48;;;;;;;;;;;15.30;99.90;;;;;;5070320;28;19947;-87
2022/04/27 08:48:17;;;;;;;;;;;15.60;99.90;;;;;;5069892;28;19908;-87
2022/04/27 08:50:44;;;;;;;;;;;15.80;99.90;;;;;;5052133;28;20377;-88
2022/04/27 08:53:10;;;;;;;;;;;16.00;99.90;;;;;;5052020;28;20015;-87
2022/04/27 08:55:36;;;;;;;;;;;16.10;99.90;;;;;;5052148;28;20419;-88
2022/04/27 08:58:05;;;;;;;;;;;16.30;99.90;;;;;;5069850;28;20420;-87
2022/04/27 09:00:31;;;;;;;;;;;16.40;99.90;;;;;;5051958;28;19916;-88
2022/04/27 09:03:17;;;;;;;;;;;16.50;99.90;;;;;;5069544;28;19909;-87
2022/04/27 09:05:50;;;;;;;;;;;16.50;99.90;;;;;;5069888;28;19909;-87
2022/04/27 09:08:16;;;;;;;;;;;16.50;99.90;;;;;;5051949;28;20147;-86
2022/04/27 09:10:42;;;;;;;;;;;16.60;99.90;;;;;;5070229;28;20166;-86
2022/04/27 09:13:08;;;;;;;;;;;16.70;99.90;;;;;;5069954;28;20280;-87
2022/04/27 09:15:33;;;;;;;;;;;16.80;99.90;;;;;;5069870;28;19912;-87
2022/04/27 09:20:46;;;;;;;;;;;17.10;99.90;;;;;;5069816;28;19939;-87
2022/04/27 09:23:22;;;;;;;;;;;17.20;99.90;;;;;;5069837;28;19951;-87
2022/04/27 09:25:49;;;;;;;;;;;17.30;99.90;;;;;;5069650;28;20171;-87
2022/04/27 09:28:15;;;;;;;;;;;17.40;99.90;;;;;;5070037;28;19936;-86
2022/04/27 09:30:42;;;;;;;;;;;17.50;99.70;;;;;;5069926;28;20013;-87
2022/04/27 09:33:08;;;;;;;;;;;17.60;99.80;;;;;;5069649;28;19919;-87
2022/04/27 09:35:37;;;;;;;;;;;17.70;99.70;;;;;;5051756;28;19908;-88
2022/04/27 09:38:13;;;;;;;;;;;17.80;99.70;;;;;;5069577;28;19924;-87
2022/04/27 09:40:57;;;;;;;;;;;17.80;99.10;;;;;;5069787;28;20293;-87
2022/04/27 09:43:42;;;;;;;;;;;18.00;99.40;;;;;;5069781;28;19915;-89
2022/04/27 09:46:22;;;;;;;;;;;18.10;99.10;;;;;;5069663;28;19969;-87
2022/04/27 09:49:07;;;;;;;;;;;18.20;98.90;;;;;;5051345;28;19916;-87
2022/04/27 09:51:34;;;;;;;;;;;18.10;99.00;;;;;;5069731;28;20147;-88
2022/04/27 09:54:00;;;;;;;;;;;18.30;99.10;;;;;;5069648;28;19909;-87
2022/04/27 09:56:33;;;;;;;;;;;18.40;99.20;;;;;;5053517;28;20288;-88
2022/04/27 09:59:03;;;;;;;;;;;18.50;99.10;;;;;;5073172;28;19916;-88
2022/04/27 10:01:34;;;;;;;;;;;18.50;98.50;;;;;;5073319;28;19912;-87
2022/04/27 10:04:02;;;;;;;;;;;18.40;99.10;;;;;;5065959;28;20134;-87
2022/04/27 10:06:29;;;;;;;;;;;18.60;99.10;;;;;;5073140;28;19935;-88
2022/04/27 10:08:55;;;;;;;;;;;18.80;99.60;;;;;;5073804;28;19915;-88
2022/04/27 10:11:21;;;;;;;;;;;19.10;99.10;;;;;;5073046;28;19909;-88
2022/04/27 10:13:48;;;;;;;;;;;19.20;98.60;;;;;;5073383;28;19955;-88
2022/04/27 10:16:16;;;;;;;;;;;19.30;98.30;;;;;;5073297;28;19920;-88
2022/04/27 10:18:42;;;;;;;;;;;19.40;98.50;;;;;;5072618;28;20075;-86
2022/04/27 10:21:10;;;;;;;;;;;19.50;98.10;;;;;;5055150;28;20476;-87
2022/04/27 10:23:43;;;;;;;;;;;19.60;97.90;;;;;;5072801;28;19947;-87
2022/04/27 10:26:14;;;;;;;;;;;19.70;97.90;;;;;;5072685;28;19920;-88
2022/04/27 10:28:45;;;;;;;;;;;19.80;98.10;;;;;;5055217;28;20367;-87
2022/04/27 10:31:11;;;;;;;;;;;20.00;97.90;;;;;;5072939;28;19915;-87
2022/04/27 10:33:40;;;;;;;;;;;20.10;97.30;;;;;;5072737;28;19909;-88
2022/04/27 10:36:22;;;;;;;;;;;19.90;97.10;;;;;;5054754;28;19909;-88
2022/04/27 10:39:08;;;;;;;;;;;19.90;97.60;;;;;;5068475;28;20376;-88
2022/04/27 10:41:33;;;;;;;;;;;20.00;97.20;;;;;;5054954;28;19908;-90
2022/04/27 10:43:59;;;;;;;;;;;20.10;97.20;;;;;;5073250;28;19948;-90
2022/04/27 10:46:38;;;;;;;;;;;20.10;96.90;;;;;;5072847;28;19996;-88
2022/04/27 10:49:22;;;;;;;;;;;20.30;97.30;;;;;;5072355;28;19917;-89
2022/04/27 10:52:02;;;;;;;;;;;20.40;97.10;;;;;;5073279;28;19912;-90
2022/04/27 10:54:31;;;;;;;;;;;20.50;96.70;;;;;;5072759;28;19928;-89
2022/04/27 10:57:14;;;;;;;;;;;20.70;96.90;;;;;;5074203;28;19919;-91
2022/04/27 10:59:43;;;;;;;;;;;20.90;96.20;;;;;;5054074;28;20029;-90
2022/04/27 11:02:28;;;;;;;;;;;21.10;96.40;;;;;;5072032;28;20491;-88
2022/04/27 11:04:53;;;;;;;;;;;21.10;96.10;;;;;;5072010;28;19917;-88
2022/04/27 11:07:38;;;;;;;;;;;21.10;95.60;;;;;;5052678;28;19908;-87
2022/04/27 11:10:11;;;;;;;;;;;21.20;95.70;;;;;;5067760;28;19994;-87
2022/04/27 11:12:40;;;;;;;;;;;21.30;95.90;;;;;;5054062;28;20010;-87
2022/04/27 11:15:06;;;;;;;;;;;21.30;95.20;;;;;;5053789;28;20395;-88
2022/04/27 11:17:34;;;;;;;;;;;21.30;95.60;;;;;;5053319;28;19959;-87
2022/04/27 11:20:00;;;;;;;;;;;21.40;95.50;;;;;;5071477;28;19920;-87
2022/04/27 11:22:26;;;;;;;;;;;21.60;95.70;;;;;;5071443;28;20364;-88
2022/04/27 11:24:53;;;;;;;;;;;21.60;95.20;;;;;;5071387;28;19956;-88
2022/04/27 11:27:23;;;;;;;;;;;21.80;94.50;;;;;;5071657;28;19987;-87
2022/04/27 11:29:50;;;;;;;;;;;21.80;94.80;;;;;;5053590;28;20008;-87
2022/04/27 11:32:16;;;;;;;;;;;21.70;94.80;;;;;;5071577;28;19916;-88
2022/04/27 11:34:46;;;;;;;;;;;21.80;95.30;;;;;;5072025;28;20372;-88
2022/04/27 11:37:16;;;;;;;;;;;22.00;94.70;;;;;;5071410;28;19966;-88
2022/04/27 11:39:43;;;;;;;;;;;22.40;94.30;;;;;;5071078;28;20355;-88
2022/04/27 11:42:12;;;;;;;;;;;22.60;94.20;;;;;;5071252;28;19912;-89
2022/04/27 11:44:38;;;;;;;;;;;22.70;93.70;;;;;;5070954;28;19908;-87
2022/04/27 11:47:04;;;;;;;;;;;22.70;94.30;;;;;;5071163;28;19909;-87
2022/04/27 11:49:30;;;;;;;;;;;23.00;93.80;;;;;;5070756;28;19909;-87
2022/04/27 11:51:56;;;;;;;;;;;23.30;93.90;;;;;;5053066;28;20063;-89
2022/04/27 11:54:25;;;;;;;;;;;23.70;93.60;;;;;;5053063;28;20050;-88
2022/04/27 11:56:55;;;;;;;;;;;23.90;92.30;;;;;;5053117;28;19909;-87
2022/04/27 11:59:21;;;;;;;;;;;24.10;92.40;;;;;;5071404;28;19924;-87
2022/04/27 12:01:50;;;;;;;;;;;24.20;92.40;;;;;;5071020;28;19908;-87
2022/04/27 12:04:16;;;;;;;;;;;24.10;91.20;;;;;;5070324;28;19908;-88
2022/04/27 12:06:42;;;;;;;;;;;23.80;91.70;;;;;;5070757;28;20521;-87
2022/04/27 12:09:14;;;;;;;;;;;23.40;91.90;;;;;;5052759;28;19919;-88
2022/04/27 12:11:41;;;;;;;;;;;23.30;92.70;;;;;;5070938;28;20276;-87
2022/04/27 12:14:07;;;;;;;;;;;23.30;92.40;;;;;;5070732;28;20010;-87
2022/04/27 12:16:33;;;;;;;;;;;23.40;92.30;;;;;;5070555;28;19913;-87
2022/04/27 12:18:59;;;;;;;;;;;23.40;92.80;;;;;;5069728;28;20312;-87
2022/04/27 12:21:25;;;;;;;;;;;23.50;92.30;;;;;;5070403;28;19995;-87
2022/04/27 12:23:51;;;;;;;;;;;23.50;91.90;;;;;;5070307;28;20007;-87
2022/04/27 12:26:17;;;;;;;;;;;23.50;92.10;;;;;;5070336;28;20434;-87
2022/04/27 12:28:47;;;;;;;;;;;23.60;92.10;;;;;;5052398;28;19915;-87
2022/04/27 12:31:16;;;;;;;;;;;23.60;91.70;;;;;;5070442;28;19962;-87
2022/04/27 12:33:43;;;;;;;;;;;23.90;91.90;;;;;;5052165;28;20391;-87
2022/04/27 12:39:03;;;;;;;;;;;24.20;91.40;;;;;;5070732;28;20371;-87
2022/04/27 12:41:30;;;;;;;;;;;24.50;91.10;;;;;;5070067;28;19931;-86
2022/04/27 12:44:01;;;;;;;;;;;24.80;90.50;;;;;;5070181;28;19916;-88
2022/04/27 12:46:26;;;;;;;;;;;24.80;90.70;;;;;;5070213;28;19909;-87
2022/04/27 12:49:05;;;;;;;;;;;25.10;90.60;;;;;;5069889;28;20148;-87
2022/04/27 12:51:35;;;;;;;;;;;25.30;90.20;;;;;;5070228;28;19915;-87
2022/04/27 12:54:02;;;;;;;;;;;25.30;90.30;;;;;;5070769;28;20026;-87
2022/04/27 12:56:35;;;;;;;;;;;25.20;90.10;;;;;;5070067;28;19905;-88
2022/04/27 12:59:07;;;;;;;;;;;25.10;89.70;;;;;;5069898;28;19916;-87
2022/04/27 13:01:33;;;;;;;;;;;24.90;89.50;;;;;;5063522;28;19913;-87
2022/04/27 13:03:59;;;;;;;;;;;24.70;89.20;;;;;;5051394;28;19908;-87
2022/04/27 13:06:25;;;;;;;;;;;24.80;90.40;;;;;;5069942;28;19999;-87
2022/04/27 13:08:51;;;;;;;;;;;25.10;90.00;;;;;;5070882;28;19955;-88
2022/04/27 13:14:02;;;;;;;;;;;25.60;88.60;;;;;;5070165;28;19916;-86
2022/04/27 13:16:28;;;;;;;;;;;25.70;88.90;;;;;;5069958;28;19979;-87
2022/04/27 13:18:55;;;;;;;;;;;25.60;89.20;;;;;;5069457;28;19926;-88
2022/04/27 13:21:21;;;;;;;;;;;25.70;89.30;;;;;;5069721;28;20419;-87
2022/04/27 13:23:47;;;;;;;;;;;25.90;87.70;;;;;;5069748;28;20365;-87
2022/04/27 13:26:12;;;;;;;;;;;26.20;87.20;;;;;;5069754;28;19920;-87
2022/04/27 13:28:40;;;;;;;;;;;26.30;87.80;;;;;;5051783;28;19917;-90
2022/04/27 13:31:06;;;;;;;;;;;26.20;86.30;;;;;;5071289;28;19908;-88
2022/04/27 13:33:31;;;;;;;;;;;25.90;86.30;;;;;;5073318;28;19915;-87
2022/04/27 13:35:57;;;;;;;;;;;25.80;87.00;;;;;;5055917;28;19909;-87
2022/04/27 13:38:24;;;;;;;;;;;25.80;87.20;;;;;;5073616;28;19928;-87
2022/04/27 13:40:51;;;;;;;;;;;25.90;87.20;;;;;;5055546;28;19908;-87
2022/04/27 13:43:16;;;;;;;;;;;26.20;87.70;;;;;;5073374;28;19918;-88
2022/04/27 13:45:44;;;;;;;;;;;26.70;86.40;;;;;;5073325;28;19916;-87
2022/04/27 13:48:10;;;;;;;;;;;27.10;85.50;;;;;;5073621;28;20003;-88
2022/04/27 13:50:35;;;;;;;;;;;27.10;85.10;;;;;;5073900;28;19951;-87
2022/04/27 13:53:01;;;;;;;;;;;27.30;85.30;;;;;;5055306;28;19908;-88
2022/04/27 13:55:27;;;;;;;;;;;27.80;84.40;;;;;;5073260;28;19915;-90
2022/04/27 13:57:54;;;;;;;;;;;28.40;83.00;;;;;;5073612;28;19913;-88
2022/04/27 14:00:22;;;;;;;;;;;28.80;82.50;;;;;;5073060;28;19938;-88
2022/04/27 14:02:47;;;;;;;;;;;29.50;82.20;;;;;;5072726;28;20498;-88
2022/04/27 14:05:13;;;;;;;;;;;30.30;79.50;;;;;;5072980;28;19912;-88
2022/04/27 14:07:42;;;;;;;;;;;30.80;77.80;;;;;;5072972;28;20136;-88
2022/04/27 14:10:08;;;;;;;;;;;31.70;76.10;;;;;;5054922;28;19919;-87
2022/04/27 14:15:17;;;;;;;;;;;30.70;75.10;;;;;;5073186;28;19931;-87
2022/04/27 14:20:31;;;;;;;;;;;28.20;78.20;;;;;;5072821;28;19924;-87
2022/04/27 14:22:56;;;;;;;;;;;27.30;79.60;;;;;;5054814;28;19909;-87
2022/04/27 14:25:23;;;;;;;;;;;26.50;80.40;;;;;;5065758;28;19974;-88
2022/04/27 14:27:51;;;;;;;;;;;25.80;82.00;;;;;;5065305;28;20448;-87
2022/04/27 14:30:17;;;;;;;;;;;25.10;83.00;;;;;;5072620;28;19943;-87
2022/04/27 14:32:43;;;;;;;;;;;24.60;84.30;;;;;;5072239;28;20005;-87
2022/04/27 14:35:09;;;;;;;;;;;24.40;85.20;;;;;;5072991;28;20013;-87
2022/04/27 14:37:35;;;;;;;;;;;24.40;85.50;;;;;;5072147;28;20015;-87
2022/04/27 14:40:01;;;;;;;;;;;24.30;86.30;;;;;;5072449;28;20365;-87